Time;durP1;ratioP1;P1;durP2;ratioP2;P2;SDS_P1;SDS_P2;PMS_P1;PMS_P2;Temp;Humidity;BMP_temperature;BMP_pressure;BME280_temperature;BME280_humidity;BME280_pressure;Samples;Min_cycle;Max_cycle;Signal;HPM_P1;HPM_P2
2022/10/05 00:00:19;;;;;;;11.07;7.00;;;;;;;;;;5059860;28;20059;-67
2022/10/05 00:02:45;;;;;;;11.60;5.75;;;;;;;;;;5059006;28;20053;-66
2022/10/05 00:05:20;;;;;;;6.68;5.32;;;;;;;;;;5060069;28;20056;-68
2022/10/05 00:07:47;;;;;;;8.82;5.82;;;;;;;;;;5059987;28;20264;-68
2022/10/05 00:10:15;;;;;;;10.40;6.47;;;;;;;;;;5060076;28;20049;-67
2022/10/05 00:12:43;;;;;;;8.85;5.40;;;;;;;;;;5060332;28;20056;-66
2022/10/05 00:15:11;;;;;;;8.40;5.85;;;;;;;;;;5058596;28;20053;-67
2022/10/05 00:17:38;;;;;;;8.63;5.65;;;;;;;;;;5060802;28;20052;-66
2022/10/05 00:20:15;;;;;;;11.57;6.05;;;;;;;;;;5060376;28;20079;-66
2022/10/05 00:22:41;;;;;;;7.55;5.72;;;;;;;;;;5061016;28;20053;-66
2022/10/05 00:25:20;;;;;;;8.20;5.30;;;;;;;;;;5059231;28;20064;-67
2022/10/05 00:27:53;;;;;;;6.55;4.88;;;;;;;;;;5060304;28;20053;-66
2022/10/05 00:30:20;;;;;;;9.43;5.28;;;;;;;;;;5060886;28;20052;-67
2022/10/05 00:32:46;;;;;;;6.93;5.68;;;;;;;;;;5061092;28;20064;-66
2022/10/05 00:35:14;;;;;;;8.55;5.28;;;;;;;;;;5058573;28;20057;-66
2022/10/05 00:37:40;;;;;;;8.15;5.25;;;;;;;;;;5063638;28;20514;-66
2022/10/05 00:40:17;;;;;;;10.95;4.93;;;;;;;;;;5062446;28;20053;-67
2022/10/05 00:42:43;;;;;;;6.93;5.07;;;;;;;;;;5063148;28;20049;-66
2022/10/05 00:45:17;;;;;;;8.10;5.43;;;;;;;;;;5061969;28;20510;-67
2022/10/05 00:47:46;;;;;;;9.63;5.90;;;;;;;;;;5064285;28;20053;-67
2022/10/05 00:50:12;;;;;;;7.53;5.03;;;;;;;;;;5062956;28;20107;-66
2022/10/05 00:52:45;;;;;;;8.00;4.78;;;;;;;;;;5062631;28;20064;-65
2022/10/05 00:55:34;;;;;;;7.53;4.75;;;;;;;;;;5062967;28;22403;-67
2022/10/05 00:58:07;;;;;;;8.00;5.45;;;;;;;;;;5064460;28;20060;-67
2022/10/05 01:00:37;;;;;;;8.07;5.38;;;;;;;;;;5059392;28;20513;-67
2022/10/05 01:03:09;;;;;;;9.13;5.43;;;;;;;;;;5063429;28;20156;-66
2022/10/05 01:05:35;;;;;;;7.63;4.65;;;;;;;;;;5062930;28;20063;-67
2022/10/05 01:08:07;;;;;;;8.63;5.07;;;;;;;;;;5063154;28;20102;-66
2022/10/05 01:10:50;;;;;;;8.52;5.20;;;;;;;;;;5064264;28;21054;-66
2022/10/05 01:13:16;;;;;;;8.20;5.20;;;;;;;;;;5044229;28;20049;-67
2022/10/05 01:16:02;;;;;;;8.35;5.68;;;;;;;;;;5055796;28;20049;-66
2022/10/05 01:18:38;;;;;;;10.45;5.95;;;;;;;;;;5063151;28;20183;-66
2022/10/05 01:21:13;;;;;;;7.25;5.25;;;;;;;;;;5062646;28;20045;-66
2022/10/05 01:23:58;;;;;;;7.38;4.95;;;;;;;;;;5061719;28;20573;-66
2022/10/05 01:26:25;;;;;;;8.75;5.45;;;;;;;;;;5063281;28;20067;-66
2022/10/05 01:28:56;;;;;;;10.45;5.60;;;;;;;;;;5063856;28;20056;-67
2022/10/05 01:31:26;;;;;;;8.98;6.18;;;;;;;;;;5062585;28;20503;-66
2022/10/05 01:34:01;;;;;;;8.60;5.32;;;;;;;;;;5064000;28;20064;-67
2022/10/05 01:36:38;;;;;;;8.18;4.88;;;;;;;;;;5062394;28;20053;-67
2022/10/05 01:39:40;;;;;;;11.30;5.93;;;;;;;;;;5062724;28;20049;-66
2022/10/05 01:42:12;;;;;;;8.38;6.03;;;;;;;;;;5000796;28;20105;-66
2022/10/05 01:44:53;;;;;;;7.22;5.65;;;;;;;;;;5000039;28;20050;-67
2022/10/05 01:47:21;;;;;;;9.75;6.22;;;;;;;;;;5000344;28;20132;-67
2022/10/05 01:49:47;;;;;;;8.82;5.35;;;;;;;;;;5000677;28;20050;-66
2022/10/05 01:52:23;;;;;;;10.70;6.72;;;;;;;;;;4999092;28;20057;-68
2022/10/05 01:54:50;;;;;;;7.70;5.50;;;;;;;;;;4998514;28;20054;-67
2022/10/05 01:57:22;;;;;;;9.45;6.00;;;;;;;;;;5000680;28;20069;-67
2022/10/05 02:00:06;;;;;;;8.05;5.75;;;;;;;;;;4999124;28;20237;-66
2022/10/05 02:02:34;;;;;;;13.63;5.95;;;;;;;;;;4999198;28;20061;-67
2022/10/05 02:05:07;;;;;;;7.40;5.38;;;;;;;;;;4996988;28;20054;-68
2022/10/05 02:07:49;;;;;;;10.43;5.57;;;;;;;;;;5000739;28;20054;-66
2022/10/05 02:10:27;;;;;;;9.23;5.80;;;;;;;;;;4997914;28;20050;-68
2022/10/05 02:12:58;;;;;;;8.02;5.75;;;;;;;;;;4997909;28;20468;-66
2022/10/05 02:15:44;;;;;;;14.57;5.97;;;;;;;;;;5004693;28;20482;-66
2022/10/05 02:18:18;;;;;;;10.73;6.32;;;;;;;;;;5060970;28;20132;-66
2022/10/05 02:20:45;;;;;;;9.45;6.03;;;;;;;;;;5061768;28;20055;-67
2022/10/05 02:23:16;;;;;;;10.32;6.03;;;;;;;;;;5063411;28;20050;-67
2022/10/05 02:25:45;;;;;;;9.13;5.78;;;;;;;;;;5061502;28;20123;-66
2022/10/05 02:28:14;;;;;;;8.57;6.20;;;;;;;;;;5061295;28;20053;-67
2022/10/05 02:30:43;;;;;;;8.85;6.50;;;;;;;;;;5061776;28;20140;-66
2022/10/05 02:33:11;;;;;;;11.20;6.20;;;;;;;;;;5062897;28;20125;-66
2022/10/05 02:35:38;;;;;;;10.90;6.03;;;;;;;;;;5058281;28;20068;-66
2022/10/05 02:38:27;;;;;;;7.88;5.80;;;;;;;;;;5062075;28;20580;-67
2022/10/05 02:40:57;;;;;;;9.93;5.82;;;;;;;;;;5062736;28;20049;-66
2022/10/05 02:43:41;;;;;;;8.90;6.15;;;;;;;;;;5062221;28;20057;-67
2022/10/05 02:46:07;;;;;;;9.38;6.07;;;;;;;;;;5059546;28;20057;-66
2022/10/05 02:48:52;;;;;;;10.13;6.35;;;;;;;;;;5062659;28;20049;-66
2022/10/05 02:51:22;;;;;;;7.75;5.43;;;;;;;;;;5061072;28;20495;-67
2022/10/05 02:54:09;;;;;;;7.80;5.70;;;;;;;;;;5061190;28;20049;-67
2022/10/05 02:56:47;;;;;;;11.07;5.80;;;;;;;;;;5026928;28;20063;-67
2022/10/05 02:59:18;;;;;;;7.97;5.45;;;;;;;;;;5058972;28;20056;-66
2022/10/05 03:01:44;;;;;;;8.40;6.05;;;;;;;;;;5045881;28;20045;-67
2022/10/05 03:04:33;;;;;;;9.15;6.20;;;;;;;;;;5062433;28;20060;-66
2022/10/05 03:07:09;;;;;;;9.05;5.95;;;;;;;;;;5056023;28;20572;-67
2022/10/05 03:09:35;;;;;;;;;;;;;;;;;;5060571;28;20056;-67
2022/10/05 03:12:04;;;;;;;10.48;5.63;;;;;;;;;;5060081;28;46885;-68
2022/10/05 03:14:49;;;;;;;9.40;5.35;;;;;;;;;;5059137;28;20048;-67
2022/10/05 03:17:20;;;;;;;8.48;5.15;;;;;;;;;;5062149;28;20049;-66
2022/10/05 03:19:49;;;;;;;7.50;5.63;;;;;;;;;;5061448;28;20503;-67
2022/10/05 03:22:21;;;;;;;7.13;5.15;;;;;;;;;;5060292;28;20111;-66
2022/10/05 03:24:54;;;;;;;8.18;5.60;;;;;;;;;;5060685;28;20106;-66
2022/10/05 03:27:23;;;;;;;11.43;6.70;;;;;;;;;;5042541;28;20069;-67
2022/10/05 03:30:10;;;;;;;8.90;5.47;;;;;;;;;;5060422;28;20056;-68
2022/10/05 03:32:49;;;;;;;7.68;5.88;;;;;;;;;;5061088;28;20053;-66
2022/10/05 03:35:15;;;;;;;8.68;6.10;;;;;;;;;;5061472;28;20724;-67
2022/10/05 03:38:00;;;;;;;11.95;6.15;;;;;;;;;;5059140;28;20049;-68
2022/10/05 03:40:35;;;;;;;7.70;5.57;;;;;;;;;;5043661;28;20045;-67
2022/10/05 03:43:04;;;;;;;7.90;4.90;;;;;;;;;;5061664;28;20055;-68
2022/10/05 03:45:40;;;;;;;10.57;5.25;;;;;;;;;;5059170;28;20053;-67
2022/10/05 03:48:24;;;;;;;8.88;5.43;;;;;;;;;;5061261;28;20053;-67
2022/10/05 03:50:51;;;;;;;9.90;6.00;;;;;;;;;;5060733;28;20048;-67
2022/10/05 03:53:18;;;;;;;7.78;5.78;;;;;;;;;;5060978;28;20056;-68
2022/10/05 03:55:48;;;;;;;8.75;5.65;;;;;;;;;;5058984;28;20510;-67
2022/10/05 03:58:20;;;;;;;7.38;6.05;;;;;;;;;;5058830;28;20057;-67
2022/10/05 04:00:50;;;;;;;9.23;5.63;;;;;;;;;;5061376;28;20797;-66
2022/10/05 04:03:46;;;;;;;11.57;5.95;;;;;;;;;;5060828;28;20041;-66
2022/10/05 04:06:12;;;;;;;9.27;5.43;;;;;;;;;;5049343;28;20049;-65
2022/10/05 04:08:38;;;;;;;8.50;5.43;;;;;;;;;;5061196;28;20287;-66
2022/10/05 04:11:13;;;;;;;7.18;5.20;;;;;;;;;;5060251;28;20087;-66
2022/10/05 04:13:55;;;;;;;8.30;5.63;;;;;;;;;;5063958;28;20158;-67
2022/10/05 04:16:23;;;;;;;9.38;5.30;;;;;;;;;;5063183;28;20823;-67
2022/10/05 04:18:55;;;;;;;7.47;5.50;;;;;;;;;;5064042;28;20481;-67
2022/10/05 04:21:28;;;;;;;9.27;5.00;;;;;;;;;;5065043;28;20053;-69
2022/10/05 04:23:58;;;;;;;8.35;5.78;;;;;;;;;;5064670;28;20052;-66
2022/10/05 04:26:46;;;;;;;7.95;5.40;;;;;;;;;;5061676;28;20430;-66
2022/10/05 04:29:18;;;;;;;7.32;5.25;;;;;;;;;;5056684;28;20487;-66
2022/10/05 04:31:50;;;;;;;7.15;5.38;;;;;;;;;;5063706;28;20049;-66
2022/10/05 04:34:35;;;;;;;7.53;5.10;;;;;;;;;;5065153;28;20057;-67
2022/10/05 04:37:03;;;;;;;7.65;5.07;;;;;;;;;;5064975;28;20056;-66
2022/10/05 04:39:42;;;;;;;6.35;5.00;;;;;;;;;;5062300;28;20060;-66
2022/10/05 04:42:09;;;;;;;6.35;4.68;;;;;;;;;;5061502;28;20053;-66
2022/10/05 04:44:43;;;;;;;6.05;5.25;;;;;;;;;;5063657;28;20053;-67
2022/10/05 04:47:36;;;;;;;6.90;5.18;;;;;;;;;;5064406;28;20053;-67
2022/10/05 04:50:05;;;;;;;6.93;4.68;;;;;;;;;;5064541;28;20083;-66
2022/10/05 04:52:38;;;;;;;6.60;5.13;;;;;;;;;;5063573;28;20049;-67
2022/10/05 04:55:17;;;;;;;13.57;5.30;;;;;;;;;;5063391;28;20052;-67
2022/10/05 04:57:46;;;;;;;8.80;4.57;;;;;;;;;;5059231;28;20952;-66
2022/10/05 05:00:27;;;;;;;5.80;4.57;;;;;;;;;;5060090;28;20431;-67
2022/10/05 05:02:59;;;;;;;6.35;5.03;;;;;;;;;;5062284;28;20060;-67
2022/10/05 05:05:41;;;;;;;5.75;4.45;;;;;;;;;;5062064;28;20049;-67
2022/10/05 05:08:46;;;;;;;7.10;4.85;;;;;;;;;;5043527;28;20053;-67
2022/10/05 05:11:32;;;;;;;7.95;5.00;;;;;;;;;;5060692;28;20091;-66
2022/10/05 05:14:10;;;;;;;7.32;4.53;;;;;;;;;;5063773;28;20084;-66
2022/10/05 05:16:40;;;;;;;6.45;4.15;;;;;;;;;;5062368;28;20491;-66
2022/10/05 05:19:06;;;;;;;4.47;3.92;;;;;;;;;;5063972;28;20053;-66
2022/10/05 05:21:36;;;;;;;5.28;4.03;;;;;;;;;;5063310;28;20522;-66
2022/10/05 05:24:18;;;;;;;5.75;4.57;;;;;;;;;;5061668;28;20056;-67
2022/10/05 05:27:08;;;;;;;5.10;3.45;;;;;;;;;;5069895;28;20107;-66
2022/10/05 05:29:34;;;;;;;3.80;2.97;;;;;;;;;;5008117;28;20595;-66
2022/10/05 05:32:20;;;;;;;3.53;3.08;;;;;;;;;;5009183;28;20057;-67
2022/10/05 05:35:04;;;;;;;3.75;2.80;;;;;;;;;;4983749;28;20058;-65
2022/10/05 05:37:34;;;;;;;3.55;2.58;;;;;;;;;;5020637;28;20061;-67
2022/10/05 05:40:12;;;;;;;2.50;2.30;;;;;;;;;;5003020;28;20531;-66
2022/10/05 05:42:57;;;;;;;2.17;1.92;;;;;;;;;;5004642;28;20081;-66
2022/10/05 05:45:25;;;;;;;3.17;2.10;;;;;;;;;;5010566;28;20058;-66
2022/10/05 05:47:52;;;;;;;4.85;1.95;;;;;;;;;;5019450;28;20512;-66
2022/10/05 05:50:31;;;;;;;4.57;2.45;;;;;;;;;;5008305;28;20061;-65
2022/10/05 05:53:02;;;;;;;2.45;2.25;;;;;;;;;;5018311;28;20145;-65
2022/10/05 05:55:30;;;;;;;4.15;2.25;;;;;;;;;;5022018;28;20091;-67
2022/10/05 05:57:58;;;;;;;2.80;2.22;;;;;;;;;;5018368;28;20687;-66
2022/10/05 06:00:31;;;;;;;3.13;2.22;;;;;;;;;;5019640;28;20053;-67
2022/10/05 06:02:57;;;;;;;2.53;2.05;;;;;;;;;;5018417;28;20054;-66
2022/10/05 06:05:26;;;;;;;4.60;2.50;;;;;;;;;;5019260;28;20050;-67
2022/10/05 06:07:54;;;;;;;3.17;2.33;;;;;;;;;;5073932;28;20053;-68
2022/10/05 06:10:25;;;;;;;4.00;2.55;;;;;;;;;;5061583;28;20056;-66
2022/10/05 06:12:53;;;;;;;4.20;2.58;;;;;;;;;;5048587;28;20092;-65
2022/10/05 06:15:39;;;;;;;2.47;2.27;;;;;;;;;;5053268;28;20604;-63
2022/10/05 06:18:10;;;;;;;4.72;2.85;;;;;;;;;;5070212;28;20072;-64
2022/10/05 06:20:41;;;;;;;3.65;2.90;;;;;;;;;;5062545;28;20060;-63
2022/10/05 06:23:19;;;;;;;4.78;2.90;;;;;;;;;;5042631;28;20424;-64
2022/10/05 06:25:55;;;;;;;2.60;2.40;;;;;;;;;;5062672;28;20060;-65
2022/10/05 06:28:23;;;;;;;4.57;3.10;;;;;;;;;;5062802;28;20423;-66
2022/10/05 06:31:05;;;;;;;14.90;3.10;;;;;;;;;;5054121;28;20051;-65
2022/10/05 06:33:44;;;;;;;3.95;2.95;;;;;;;;;;5052113;28;20072;-67
2022/10/05 06:36:37;;;;;;;3.20;2.67;;;;;;;;;;5054181;28;22471;-63
2022/10/05 06:39:06;;;;;;;5.05;3.08;;;;;;;;;;5052326;28;20060;-64
2022/10/05 06:41:51;;;;;;;7.18;3.10;;;;;;;;;;5053468;28;20053;-63
2022/10/05 06:44:21;;;;;;;5.75;3.22;;;;;;;;;;5055358;28;20092;-63
2022/10/05 06:46:47;;;;;;;3.53;2.85;;;;;;;;;;5055067;28;20060;-63
2022/10/05 06:49:20;;;;;;;4.28;2.90;;;;;;;;;;5055058;28;20059;-65
2022/10/05 06:51:55;;;;;;;4.32;3.25;;;;;;;;;;5052397;28;20049;-65
2022/10/05 06:54:25;;;;;;;4.68;3.05;;;;;;;;;;5058510;28;20522;-65
2022/10/05 06:56:57;;;;;;;5.18;3.17;;;;;;;;;;5059008;28;20060;-65
2022/10/05 06:59:38;;;;;;;4.28;3.67;;;;;;;;;;5053876;28;20052;-66
2022/10/05 07:02:09;;;;;;;4.90;3.33;;;;;;;;;;5056621;28;20053;-66
2022/10/05 07:04:52;;;;;;;3.35;3.05;;;;;;;;;;5060204;28;20692;-66
2022/10/05 07:07:44;;;;;;;4.15;3.10;;;;;;;;;;5055447;28;20049;-66
2022/10/05 07:10:23;;;;;;;7.93;4.28;;;;;;;;;;5054335;28;20060;-66
2022/10/05 07:13:08;;;;;;;4.57;3.33;;;;;;;;;;5055184;28;20523;-65
2022/10/05 07:15:48;;;;;;;5.03;3.83;;;;;;;;;;5053532;28;20379;-65
2022/10/05 07:18:33;;;;;;;4.80;2.60;;;;;;;;;;5052374;28;20056;-66
2022/10/05 07:21:09;;;;;;;6.90;3.28;;;;;;;;;;5059987;28;20052;-66
2022/10/05 07:23:35;;;;;;;;;;;;;;;;;;5054312;28;20349;-66
2022/10/05 07:26:08;;;;;;;4.85;2.80;;;;;;;;;;5051709;28;47198;-65
2022/10/05 07:28:51;;;;;;;5.00;3.30;;;;;;;;;;5061701;28;20057;-64
2022/10/05 07:31:27;;;;;;;6.35;3.10;;;;;;;;;;5060603;28;20809;-63
2022/10/05 07:34:08;;;;;;;6.05;3.10;;;;;;;;;;5053441;28;20060;-64
2022/10/05 07:39:27;;;;;;;4.90;3.00;;;;;;;;;;5055155;28;20986;-67
2022/10/05 07:42:43;;;;;;;4.63;2.92;;;;;;;;;;5053735;28;20103;-67
2022/10/05 07:45:26;;;;;;;3.47;3.10;;;;;;;;;;4974292;28;20058;-66
2022/10/05 07:47:54;;;;;;;3.85;2.90;;;;;;;;;;4979410;28;20057;-64
2022/10/05 07:50:34;;;;;;;5.07;3.10;;;;;;;;;;4975951;28;20062;-63
2022/10/05 07:53:03;;;;;;;7.10;2.95;;;;;;;;;;4976966;28;20057;-64
2022/10/05 07:55:35;;;;;;;4.20;2.80;;;;;;;;;;4976319;28;20051;-64
2022/10/05 07:58:01;;;;;;;4.32;2.95;;;;;;;;;;4976421;28;20837;-65
2022/10/05 08:00:42;;;;;;;3.78;2.85;;;;;;;;;;4976424;28;20055;-65
2022/10/05 08:03:34;;;;;;;4.97;2.88;;;;;;;;;;4976966;28;20147;-66
2022/10/05 08:06:02;;;;;;;4.82;3.47;;;;;;;;;;4945870;28;20562;-65
2022/10/05 08:08:40;;;;;;;4.90;3.25;;;;;;;;;;4975784;28;20055;-64
2022/10/05 08:11:12;;;;;;;4.07;3.25;;;;;;;;;;4976835;28;20051;-65
2022/10/05 08:13:47;;;;;;;4.72;3.05;;;;;;;;;;4975967;28;20066;-66
2022/10/05 08:16:15;;;;;;;3.10;2.67;;;;;;;;;;4979756;28;20056;-65
2022/10/05 08:18:54;;;;;;;5.00;3.03;;;;;;;;;;4964712;28;20061;-66
2022/10/05 08:21:33;;;;;;;5.45;3.10;;;;;;;;;;5011678;28;20063;-67
2022/10/05 08:24:17;;;;;;;6.72;3.08;;;;;;;;;;5056527;28;20060;-65
2022/10/05 08:26:58;;;;;;;4.53;3.35;;;;;;;;;;5058444;28;20080;-66
2022/10/05 08:29:28;;;;;;;3.20;2.58;;;;;;;;;;5056720;28;20132;-64
2022/10/05 08:31:57;;;;;;;5.63;3.53;;;;;;;;;;5056956;28;20098;-64
2022/10/05 08:34:37;;;;;;;5.07;3.65;;;;;;;;;;5054699;28;20504;-65
2022/10/05 08:37:07;;;;;;;5.55;3.45;;;;;;;;;;5054644;28;20466;-64
2022/10/05 08:39:39;;;;;;;5.65;3.30;;;;;;;;;;5055678;28;20061;-64
2022/10/05 08:42:14;;;;;;;4.03;3.30;;;;;;;;;;5059251;28;20044;-64
2022/10/05 08:44:41;;;;;;;6.18;3.38;;;;;;;;;;5056065;28;20064;-64
2022/10/05 08:47:10;;;;;;;4.18;3.47;;;;;;;;;;5056030;28;20060;-64
2022/10/05 08:49:55;;;;;;;5.28;4.13;;;;;;;;;;5057294;28;20053;-65
2022/10/05 08:52:40;;;;;;;10.10;3.92;;;;;;;;;;5054713;28;20056;-66
2022/10/05 08:55:21;;;;;;;3.80;3.30;;;;;;;;;;5055233;28;20056;-65
2022/10/05 08:58:06;;;;;;;4.45;3.97;;;;;;;;;;5055742;28;20045;-65
2022/10/05 09:00:39;;;;;;;5.80;3.80;;;;;;;;;;5055426;28;20061;-64
2022/10/05 09:03:14;;;;;;;7.00;3.50;;;;;;;;;;5053628;28;20049;-66
2022/10/05 09:05:41;;;;;;;;;;;;;;;;;;5056624;28;20052;-64
2022/10/05 09:08:22;;;;;;;6.68;3.15;;;;;;;;;;5060097;28;45086;-65
2022/10/05 09:10:49;;;;;;;4.22;2.97;;;;;;;;;;5063219;28;20060;-65
2022/10/05 09:13:24;;;;;;;5.40;3.42;;;;;;;;;;5058798;28;20065;-64
2022/10/05 09:15:50;;;;;;;;;;;;;;;;;;5060093;28;20096;-64
2022/10/05 09:18:20;;;;;;;4.57;2.88;;;;;;;;;;5060147;28;45937;-65
2022/10/05 09:20:51;;;;;;;3.55;3.08;;;;;;;;;;5058952;28;20053;-67
2022/10/05 09:23:17;;;;;;;8.73;2.75;;;;;;;;;;5059357;28;20490;-67
2022/10/05 09:26:04;;;;;;;3.72;2.67;;;;;;;;;;5056832;28;20041;-68
2022/10/05 09:28:33;;;;;;;2.80;2.60;;;;;;;;;;5054236;28;20061;-68
2022/10/05 09:31:15;;;;;;;2.90;2.60;;;;;;;;;;5055096;28;20089;-66
2022/10/05 09:33:54;;;;;;;3.58;2.33;;;;;;;;;;5056570;28;20758;-65
2022/10/05 09:36:39;;;;;;;4.22;2.50;;;;;;;;;;5054926;28;20061;-67
2022/10/05 09:39:24;;;;;;;3.10;2.38;;;;;;;;;;5059468;28;20061;-65
2022/10/05 09:41:50;;;;;;;3.58;2.00;;;;;;;;;;5063235;28;20537;-68
2022/10/05 09:44:20;;;;;;;2.35;1.90;;;;;;;;;;5068907;28;20044;-66
2022/10/05 09:46:47;;;;;;;5.30;2.88;;;;;;;;;;5065682;28;20076;-65
2022/10/05 09:49:31;;;;;;;5.07;3.22;;;;;;;;;;5063031;28;20057;-64
2022/10/05 09:52:06;;;;;;;5.00;2.80;;;;;;;;;;5043994;28;20056;-66
2022/10/05 09:54:45;;;;;;;3.00;2.70;;;;;;;;;;5060154;28;20044;-66
2022/10/05 09:57:22;;;;;;;3.58;2.78;;;;;;;;;;5051603;28;20499;-66
2022/10/05 09:59:51;;;;;;;4.22;3.40;;;;;;;;;;5062588;28;20053;-66
2022/10/05 10:02:37;;;;;;;3.83;2.78;;;;;;;;;;5063194;28;20056;-65
2022/10/05 10:05:19;;;;;;;7.47;3.30;;;;;;;;;;5062816;28;20060;-64
2022/10/05 10:07:57;;;;;;;3.58;2.65;;;;;;;;;;5062930;28;20080;-66
2022/10/05 10:10:40;;;;;;;3.20;2.78;;;;;;;;;;5047813;28;20526;-66
2022/10/05 10:13:15;;;;;;;3.45;2.60;;;;;;;;;;5050920;28;20056;-66
2022/10/05 10:15:56;;;;;;;3.78;2.47;;;;;;;;;;5058313;28;20045;-66
2022/10/05 10:18:38;;;;;;;6.13;2.25;;;;;;;;;;5060093;28;20057;-66
2022/10/05 10:21:04;;;;;;;3.47;2.22;;;;;;;;;;5058959;28;20148;-66
2022/10/05 10:23:30;;;;;;;4.60;1.70;;;;;;;;;;5055020;28;20053;-65
2022/10/05 10:26:15;;;;;;;3.17;2.55;;;;;;;;;;5054434;28;20049;-66
2022/10/05 10:28:42;;;;;;;3.67;2.00;;;;;;;;;;5062035;28;20072;-67
2022/10/05 10:31:27;;;;;;;4.65;2.35;;;;;;;;;;5061731;28;20049;-67
2022/10/05 10:34:13;;;;;;;2.95;2.22;;;;;;;;;;5062415;28;20052;-67
2022/10/05 10:36:58;;;;;;;6.07;2.35;;;;;;;;;;5046564;28;20057;-67
2022/10/05 10:39:36;;;;;;;6.63;2.93;;;;;;;;;;5059897;28;20052;-66
2022/10/05 10:42:02;;;;;;;2.67;2.45;;;;;;;;;;5060179;28;20292;-66
2022/10/05 10:44:41;;;;;;;4.82;2.80;;;;;;;;;;5058956;28;20052;-66
2022/10/05 10:47:10;;;;;;;5.13;2.83;;;;;;;;;;5061571;28;20430;-66
2022/10/05 10:49:37;;;;;;;4.80;3.60;;;;;;;;;;5060137;28;20045;-66
2022/10/05 10:52:03;;;;;;;5.65;2.90;;;;;;;;;;5058817;28;20107;-66
2022/10/05 10:54:41;;;;;;;5.07;2.90;;;;;;;;;;5054554;28;20136;-67
2022/10/05 10:57:24;;;;;;;6.38;3.00;;;;;;;;;;5058623;28;20541;-66
2022/10/05 11:00:11;;;;;;;4.43;2.60;;;;;;;;;;5075586;28;20052;-67
2022/10/05 11:02:48;;;;;;;5.38;3.25;;;;;;;;;;5071731;28;20560;-66
2022/10/05 11:05:24;;;;;;;3.63;3.10;;;;;;;;;;5076975;28;20052;-67
2022/10/05 11:08:08;;;;;;;5.45;3.25;;;;;;;;;;5061334;28;20060;-68
2022/10/05 11:10:35;;;;;;;6.90;4.13;;;;;;;;;;5061696;28;20049;-68
2022/10/05 11:13:10;;;;;;;4.93;2.95;;;;;;;;;;5060516;28;20932;-66
2022/10/05 11:15:36;;;;;;;;;;;;;;;;;;5069006;28;20056;-69
2022/10/05 11:18:14;;;;;;;3.40;3.10;;;;;;;;;;5061294;28;46843;-67
2022/10/05 11:20:43;;;;;;;3.72;3.10;;;;;;;;;;5061805;28;20059;-67
2022/10/05 11:23:28;;;;;;;5.40;3.63;;;;;;;;;;5055937;28;20485;-67
2022/10/05 11:26:00;;;;;;;4.47;3.53;;;;;;;;;;5053460;28;20045;-67
2022/10/05 11:28:35;;;;;;;4.88;3.28;;;;;;;;;;5054307;28;20088;-68
2022/10/05 11:31:20;;;;;;;8.48;2.95;;;;;;;;;;5054205;28;22335;-66
2022/10/05 11:33:57;;;;;;;5.67;4.10;;;;;;;;;;5053472;28;20103;-65
2022/10/05 11:36:49;;;;;;;3.15;2.58;;;;;;;;;;5053348;28;20067;-66
2022/10/05 11:39:35;;;;;;;4.72;3.00;;;;;;;;;;5053370;28;20060;-67
2022/10/05 11:42:08;;;;;;;4.13;3.20;;;;;;;;;;5052644;28;20059;-67
2022/10/05 11:44:53;;;;;;;4.97;3.20;;;;;;;;;;5053923;28;21237;-68
2022/10/05 11:47:31;;;;;;;5.68;3.08;;;;;;;;;;5053420;28;20140;-65
2022/10/05 11:50:19;;;;;;;6.38;3.75;;;;;;;;;;5054209;28;20060;-67
2022/10/05 11:52:46;;;;;;;3.75;3.03;;;;;;;;;;5053165;28;20822;-67
2022/10/05 11:55:15;;;;;;;5.90;2.85;;;;;;;;;;5053079;28;20057;-66
2022/10/05 11:57:46;;;;;;;5.40;2.53;;;;;;;;;;5054266;28;20053;-68
2022/10/05 12:00:20;;;;;;;8.38;2.70;;;;;;;;;;5053925;28;20056;-68
2022/10/05 12:03:02;;;;;;;5.55;2.30;;;;;;;;;;5053976;28;20059;-68
2022/10/05 12:05:35;;;;;;;3.95;2.70;;;;;;;;;;5054188;28;20132;-68
2022/10/05 12:08:13;;;;;;;3.65;2.40;;;;;;;;;;5052053;28;20049;-69
2022/10/05 12:10:40;;;;;;;2.40;2.20;;;;;;;;;;5049945;28;20057;-67
2022/10/05 12:13:13;;;;;;;2.92;2.40;;;;;;;;;;5061394;28;20057;-66
2022/10/05 12:15:40;;;;;;;6.43;2.60;;;;;;;;;;5064259;28;20623;-66
2022/10/05 12:18:09;;;;;;;4.38;2.10;;;;;;;;;;5060446;28;20131;-67
2022/10/05 12:20:39;;;;;;;3.78;2.53;;;;;;;;;;5059725;28;20045;-66
2022/10/05 12:23:32;;;;;;;3.25;2.55;;;;;;;;;;5060693;28;20057;-66
2022/10/05 12:26:04;;;;;;;3.70;2.17;;;;;;;;;;5071983;28;20064;-67
2022/10/05 12:28:42;;;;;;;3.60;2.30;;;;;;;;;;5061327;28;20057;-66
2022/10/05 12:31:19;;;;;;;6.32;2.33;;;;;;;;;;5058730;28;20057;-66
2022/10/05 12:33:45;;;;;;;5.43;2.00;;;;;;;;;;5063377;28;20076;-65
2022/10/05 12:36:34;;;;;;;5.82;1.58;;;;;;;;;;5063532;28;20053;-66
2022/10/05 12:39:38;;;;;;;2.50;1.98;;;;;;;;;;5063461;28;20505;-67
2022/10/05 12:42:10;;;;;;;6.15;2.65;;;;;;;;;;5050242;28;20053;-66
2022/10/05 12:44:55;;;;;;;3.63;2.53;;;;;;;;;;5069367;28;20490;-66
2022/10/05 12:47:34;;;;;;;3.75;1.95;;;;;;;;;;5061286;28;20526;-66
2022/10/05 12:50:09;;;;;;;3.97;2.88;;;;;;;;;;5064614;28;20136;-66
2022/10/05 12:52:35;;;;;;;;;;;;;;;;;;5064882;28;20076;-68
2022/10/05 12:55:01;;;;;;;9.10;2.72;;;;;;;;;;5063098;28;46762;-66
2022/10/05 12:57:47;;;;;;;4.60;2.50;;;;;;;;;;5064351;28;20050;-66
2022/10/05 13:00:14;;;;;;;5.07;2.28;;;;;;;;;;5063562;28;20510;-66
2022/10/05 13:02:49;;;;;;;4.05;2.10;;;;;;;;;;5064536;28;20057;-66
2022/10/05 13:05:18;;;;;;;6.63;2.17;;;;;;;;;;5064610;28;20059;-67
2022/10/05 13:08:05;;;;;;;4.15;2.33;;;;;;;;;;5063363;28;20045;-67
2022/10/05 13:10:50;;;;;;;4.03;2.33;;;;;;;;;;5062812;28;20056;-68
2022/10/05 13:13:16;;;;;;;4.07;2.20;;;;;;;;;;5062422;28;20048;-68
2022/10/05 13:16:03;;;;;;;4.78;2.22;;;;;;;;;;5061761;28;20053;-68
2022/10/05 13:18:32;;;;;;;2.45;2.10;;;;;;;;;;5055095;28;20045;-67
2022/10/05 13:21:03;;;;;;;3.92;2.05;;;;;;;;;;5059584;28;20056;-68
2022/10/05 13:23:37;;;;;;;4.68;2.10;;;;;;;;;;5061701;28;20060;-68
2022/10/05 13:26:09;;;;;;;4.22;2.22;;;;;;;;;;5063605;28;20048;-66
2022/10/05 13:28:36;;;;;;;7.20;2.03;;;;;;;;;;5061960;28;20114;-65
2022/10/05 13:31:07;;;;;;;5.03;2.55;;;;;;;;;;5064273;28;20056;-66
2022/10/05 13:33:40;;;;;;;5.45;2.20;;;;;;;;;;5062512;28;20057;-67
2022/10/05 13:36:13;;;;;;;2.95;2.00;;;;;;;;;;5043122;28;20060;-65
2022/10/05 13:38:40;;;;;;;2.70;2.15;;;;;;;;;;5059644;28;20057;-66
2022/10/05 13:41:25;;;;;;;2.80;1.90;;;;;;;;;;5062232;28;20052;-65
2022/10/05 13:44:04;;;;;;;6.25;2.20;;;;;;;;;;5062753;28;20045;-65
2022/10/05 13:46:39;;;;;;;5.13;2.50;;;;;;;;;;5063376;28;20063;-65
2022/10/05 13:49:12;;;;;;;5.45;2.17;;;;;;;;;;5062367;28;20052;-66
2022/10/05 13:51:41;;;;;;;2.35;1.85;;;;;;;;;;5056954;28;20049;-66
2022/10/05 13:54:19;;;;;;;3.70;2.10;;;;;;;;;;5061045;28;20048;-65
2022/10/05 13:56:51;;;;;;;2.47;2.13;;;;;;;;;;5077251;28;20057;-67
2022/10/05 13:59:28;;;;;;;3.67;2.42;;;;;;;;;;5054231;28;20662;-64
2022/10/05 14:02:04;;;;;;;2.40;1.90;;;;;;;;;;5057158;28;20064;-67
2022/10/05 14:04:42;;;;;;;3.30;2.15;;;;;;;;;;5058008;28;20052;-66
2022/10/05 14:07:21;;;;;;;4.57;2.13;;;;;;;;;;5062522;28;20049;-67
2022/10/05 14:09:48;;;;;;;4.82;2.28;;;;;;;;;;5061602;28;20053;-66
2022/10/05 14:12:19;;;;;;;2.20;1.83;;;;;;;;;;5060653;28;20546;-67
2022/10/05 14:14:45;;;;;;;2.95;1.80;;;;;;;;;;5061074;28;20057;-66
2022/10/05 14:17:14;;;;;;;6.78;2.00;;;;;;;;;;5061745;28;20052;-67
2022/10/05 14:19:45;;;;;;;3.22;1.90;;;;;;;;;;5072198;28;20846;-68
2022/10/05 14:22:13;;;;;;;4.82;2.22;;;;;;;;;;5060881;28;20045;-68
2022/10/05 14:24:49;;;;;;;3.70;2.38;;;;;;;;;;5059388;28;20053;-66
2022/10/05 14:27:17;;;;;;;2.15;1.95;;;;;;;;;;5060954;28;20053;-66
2022/10/05 14:29:43;;;;;;;5.47;2.33;;;;;;;;;;5047666;28;20148;-67
2022/10/05 14:32:13;;;;;;;2.05;1.85;;;;;;;;;;5066996;28;20053;-67
2022/10/05 14:34:44;;;;;;;4.25;2.22;;;;;;;;;;5060826;28;20691;-67
2022/10/05 14:37:24;;;;;;;3.90;2.58;;;;;;;;;;5061677;28;20056;-67
2022/10/05 14:39:56;;;;;;;3.80;3.00;;;;;;;;;;5061677;28;20095;-67
2022/10/05 14:42:24;;;;;;;10.15;2.55;;;;;;;;;;5061273;28;20097;-67
2022/10/05 14:45:10;;;;;;;4.32;2.50;;;;;;;;;;5061789;28;20053;-66
2022/10/05 14:47:44;;;;;;;7.10;2.22;;;;;;;;;;5062900;28;20049;-68
2022/10/05 14:50:16;;;;;;;7.60;2.42;;;;;;;;;;5057234;28;20056;-65
2022/10/05 14:52:46;;;;;;;3.15;2.15;;;;;;;;;;5061570;28;20103;-65
2022/10/05 14:55:26;;;;;;;3.03;2.30;;;;;;;;;;5062678;28;20098;-66
2022/10/05 14:57:58;;;;;;;2.85;2.00;;;;;;;;;;5061228;28;20057;-66
2022/10/05 15:00:24;;;;;;;2.78;2.17;;;;;;;;;;5057754;28;20049;-68
2022/10/05 15:03:16;;;;;;;4.43;2.00;;;;;;;;;;5060955;28;20083;-68
2022/10/05 15:05:57;;;;;;;3.15;1.60;;;;;;;;;;5041692;28;20053;-68
2022/10/05 15:08:43;;;;;;;6.50;1.80;;;;;;;;;;5056527;28;20052;-67
2022/10/05 15:11:19;;;;;;;2.75;1.70;;;;;;;;;;5046535;28;20064;-68
2022/10/05 15:13:47;;;;;;;2.40;1.70;;;;;;;;;;5046270;28;20053;-67
2022/10/05 15:16:20;;;;;;;3.10;1.70;;;;;;;;;;5062511;28;20551;-67
2022/10/05 15:19:14;;;;;;;3.15;1.85;;;;;;;;;;5061415;28;20052;-67
2022/10/05 15:21:56;;;;;;;3.80;1.73;;;;;;;;;;5061938;28;20060;-67
2022/10/05 15:24:25;;;;;;;3.92;2.00;;;;;;;;;;5062274;28;20533;-68
2022/10/05 15:26:53;;;;;;;4.30;2.17;;;;;;;;;;5062007;28;20053;-67
2022/10/05 15:29:41;;;;;;;1.80;1.58;;;;;;;;;;5061451;28;20049;-69
2022/10/05 15:32:27;;;;;;;2.33;1.80;;;;;;;;;;5062654;28;20049;-68